Time;durP1;ratioP1;P1;durP2;ratioP2;P2;SDS_P1;SDS_P2;PMS_P1;PMS_P2;Temp;Humidity;BMP_temperature;BMP_pressure;BME280_temperature;BME280_humidity;BME280_pressure;Samples;Min_cycle;Max_cycle;Signal;HPM_P1;HPM_P2
2023/02/09 00:01:51;;;;;;;;;;;;;;;-2.31;80.25;101601.03;4984887;28;20024;-67
2023/02/09 00:04:17;;;;;;;;;;;;;;;-2.32;80.16;101599.34;5002821;28;19937;-68
2023/02/09 00:06:43;;;;;;;;;;;;;;;-2.29;80.45;101600.88;5016281;28;20418;-67
2023/02/09 00:09:09;;;;;;;;;;;;;;;-2.25;80.52;101598.75;5008396;28;19956;-67
2023/02/09 00:14:20;;;;;;;;;;;;;;;-2.21;80.63;101600.97;5023656;28;20071;-67
2023/02/09 00:16:46;;;;;;;;;;;;;;;-2.21;80.51;101602.84;5033964;28;20028;-66
2023/02/09 00:19:13;;;;;;;;;;;;;;;-2.24;81.04;101600.47;5000842;28;19933;-67
2023/02/09 00:21:39;;;;;;;;;;;;;;;-2.33;81.20;101586.09;5016920;28;20458;-66
2023/02/09 00:24:05;;;;;;;;;;;;;;;-2.33;81.67;101586.94;5020268;28;20028;-66
2023/02/09 00:26:31;;;;;;;;;;;;;;;-2.30;82.24;101589.31;5001962;28;19933;-66
2023/02/09 00:28:58;;;;;;;;;;;;;;;-2.26;82.26;101579.16;5015508;28;19937;-68
2023/02/09 00:31:24;;;;;;;;;;;;;;;-2.26;82.75;101586.31;5019291;28;19929;-67
2023/02/09 00:33:50;;;;;;;;;;;;;;;-2.25;82.80;101577.31;5021260;28;19936;-67
2023/02/09 00:36:15;;;;;;;;;;;;;;;-2.20;82.84;101578.53;5012190;28;20030;-67
2023/02/09 00:38:41;;;;;;;;;;;;;;;-2.15;82.77;101570.06;5006539;28;19988;-67
2023/02/09 00:41:08;;;;;;;;;;;;;;;-2.16;82.89;101571.94;5003027;28;19929;-67
2023/02/09 00:43:33;;;;;;;;;;;;;;;-2.16;83.14;101576.44;5014851;28;19929;-67
2023/02/09 00:46:01;;;;;;;;;;;;;;;-2.16;83.30;101563.03;5021308;28;19965;-66
2023/02/09 00:48:26;;;;;;;;;;;;;;;-2.20;83.38;101559.78;5009511;28;20225;-66
2023/02/09 00:50:52;;;;;;;;;;;;;;;-2.31;83.50;101562.66;5025782;28;19999;-67
2023/02/09 00:53:19;;;;;;;;;;;;;;;-2.36;83.85;101554.22;5038108;28;19936;-67
2023/02/09 00:55:45;;;;;;;;;;;;;;;-2.37;84.04;101553.38;5012184;28;19929;-67
2023/02/09 00:58:10;;;;;;;;;;;;;;;-2.29;84.15;101558.84;5005571;28;20351;-66
2023/02/09 01:00:36;;;;;;;;;;;;;;;-2.21;83.88;101560.78;5019654;28;19929;-67
2023/02/09 01:03:04;;;;;;;;;;;;;;;-2.23;83.82;101551.22;5028115;28;19933;-67
2023/02/09 01:05:30;;;;;;;;;;;;;;;-2.25;83.88;101546.00;5021398;28;19929;-67
2023/02/09 01:07:55;;;;;;;;;;;;;;;-2.23;83.68;101561.94;5009819;28;19929;-67
2023/02/09 01:10:21;;;;;;;;;;;;;;;-2.26;83.92;101551.50;5020206;28;20378;-67
2023/02/09 01:12:51;;;;;;;;;;;;;;;-2.31;84.00;101552.78;5020958;28;19934;-67
2023/02/09 01:15:17;;;;;;;;;;;;;;;-2.31;84.18;101551.94;5016602;28;19984;-68
2023/02/09 01:17:43;;;;;;;;;;;;;;;-2.26;84.20;101556.84;5007523;28;19930;-67
2023/02/09 01:20:12;;;;;;;;;;;;;;;-2.22;84.21;101553.72;5021149;28;19995;-66
2023/02/09 01:22:38;;;;;;;;;;;;;;;-2.18;84.12;101565.00;5018235;28;20040;-67
2023/02/09 01:25:05;;;;;;;;;;;;;;;-2.28;83.93;101536.41;5026696;28;19936;-68
2023/02/09 01:27:31;;;;;;;;;;;;;;;-2.22;84.11;101551.06;5020011;28;20063;-68
2023/02/09 01:29:58;;;;;;;;;;;;;;;-2.24;84.18;101550.34;5025671;28;20027;-68
2023/02/09 01:32:24;;;;;;;;;;;;;;;-2.20;84.43;101557.09;5013049;28;20020;-68
2023/02/09 01:34:50;;;;;;;;;;;;;;;-2.21;84.42;101550.06;5023646;28;19935;-67
2023/02/09 01:37:18;;;;;;;;;;;;;;;-2.11;84.45;101552.69;5007775;28;19936;-67
2023/02/09 01:39:45;;;;;;;;;;;;;;;-2.08;84.39;101554.25;5011315;28;19937;-68
2023/02/09 01:42:12;;;;;;;;;;;;;;;-2.12;84.26;101559.03;5020270;28;19929;-67
2023/02/09 01:45:04;;;;;;;;;;;;;;;-2.09;84.38;101552.56;5014576;28;20012;-67
2023/02/09 01:47:31;;;;;;;;;;;;;;;-2.10;84.30;101549.06;5017720;28;19929;-67
2023/02/09 01:49:57;;;;;;;;;;;;;;;-2.08;84.51;101557.78;5012957;28;20027;-67
2023/02/09 01:52:27;;;;;;;;;;;;;;;-2.04;84.75;101552.94;5012791;28;20071;-68
2023/02/09 01:54:54;;;;;;;;;;;;;;;-1.98;84.78;101548.84;5008238;28;19973;-66
2023/02/09 01:57:23;;;;;;;;;;;;;;;-1.91;84.73;101553.44;5004143;28;19935;-67
2023/02/09 01:59:52;;;;;;;;;;;;;;;-1.87;84.88;101552.19;5000968;28;19937;-67
2023/02/09 02:02:18;;;;;;;;;;;;;;;-1.85;84.78;101543.97;5015162;28;19929;-67
2023/02/09 02:04:47;;;;;;;;;;;;;;;-1.82;84.75;101540.97;5010422;28;19929;-67
2023/02/09 02:07:17;;;;;;;;;;;;;;;-1.83;84.55;101541.16;5013286;28;19933;-67
2023/02/09 02:09:44;;;;;;;;;;;;;;;-1.83;84.94;101544.66;5021756;28;19929;-65
2023/02/09 02:12:10;;;;;;;;;;;;;;;-1.80;84.99;101540.84;5012241;28;19972;-67
2023/02/09 02:14:37;;;;;;;;;;;;;;;-1.80;84.96;101538.16;5018535;28;20030;-67
2023/02/09 02:17:10;;;;;;;;;;;;;;;-1.78;85.17;101541.53;5008206;28;19933;-67
2023/02/09 02:19:49;;;;;;;;;;;;;;;-1.73;85.23;101548.13;4997727;28;19938;-67
2023/02/09 02:22:33;;;;;;;;;;;;;;;-1.71;85.04;101556.03;5013984;28;19929;-67
2023/02/09 02:25:14;;;;;;;;;;;;;;;-1.71;84.92;101558.72;5010106;28;19929;-67
2023/02/09 02:27:45;;;;;;;;;;;;;;;-1.73;85.17;101558.00;5018565;28;20367;-67
2023/02/09 02:30:27;;;;;;;;;;;;;;;-1.74;85.07;101554.50;5015671;28;19929;-67
2023/02/09 02:32:58;;;;;;;;;;;;;;;-1.73;85.20;101561.53;5019978;28;20167;-67
2023/02/09 02:35:28;;;;;;;;;;;;;;;-1.72;85.24;101565.06;5010635;28;19963;-67
2023/02/09 02:37:59;;;;;;;;;;;;;;;-1.72;85.39;101560.56;5014503;28;19971;-67
2023/02/09 02:40:32;;;;;;;;;;;;;;;-1.72;85.50;101557.00;5012002;28;19968;-67
2023/02/09 02:43:01;;;;;;;;;;;;;;;-1.71;85.18;101556.88;5011628;28;20000;-67
2023/02/09 02:45:31;;;;;;;;;;;;;;;-1.71;85.32;101551.50;5008918;28;20439;-67
2023/02/09 02:48:02;;;;;;;;;;;;;;;-1.70;85.13;101549.69;5013932;28;20326;-67
2023/02/09 02:50:30;;;;;;;;;;;;;;;-1.71;84.92;101551.50;5003922;28;20146;-66
2023/02/09 02:52:58;;;;;;;;;;;;;;;-1.69;84.94;101556.72;5019326;28;20281;-66
2023/02/09 02:55:30;;;;;;;;;;;;;;;-1.71;84.90;101551.50;5014827;28;19968;-68
2023/02/09 02:57:57;;;;;;;;;;;;;;;-1.67;84.89;101556.56;5015091;28;19929;-67
2023/02/09 03:00:25;;;;;;;;;;;;;;;-1.68;84.52;101550.38;5015699;28;19937;-67
2023/02/09 03:02:52;;;;;;;;;;;;;;;-1.68;84.48;101547.69;5011803;28;19975;-65
2023/02/09 03:05:21;;;;;;;;;;;;;;;-1.68;84.50;101541.47;5013020;28;20404;-67
2023/02/09 03:07:47;;;;;;;;;;;;;;;-1.66;84.23;101550.19;5018092;28;20491;-67
2023/02/09 03:10:24;;;;;;;;;;;;;;;-1.65;84.11;101550.06;5025099;28;19929;-67
2023/02/09 03:12:53;;;;;;;;;;;;;;;-1.67;84.16;101546.69;5007039;28;19936;-66
2023/02/09 03:15:26;;;;;;;;;;;;;;;-1.66;84.16;101547.53;5009970;28;19983;-67
2023/02/09 03:17:58;;;;;;;;;;;;;;;-1.66;84.08;101545.69;5032968;28;20040;-67
2023/02/09 03:20:30;;;;;;;;;;;;;;;-1.66;83.91;101548.38;5005690;28;20024;-67
2023/02/09 03:22:59;;;;;;;;;;;;;;;-1.66;84.13;101548.38;5009648;28;20439;-67
2023/02/09 03:25:28;;;;;;;;;;;;;;;-1.64;83.95;101545.53;5007302;28;19929;-67
2023/02/09 03:27:56;;;;;;;;;;;;;;;-1.64;84.06;101545.53;5013150;28;19933;-67
2023/02/09 03:30:22;;;;;;;;;;;;;;;-1.63;83.93;101542.69;5014280;28;19936;-67
2023/02/09 03:32:48;;;;;;;;;;;;;;;-1.63;83.87;101544.56;5021442;28;19937;-68
2023/02/09 03:35:15;;;;;;;;;;;;;;;-1.63;83.76;101541.88;5014677;28;20031;-68
2023/02/09 03:37:43;;;;;;;;;;;;;;;-1.60;83.73;101547.75;5025471;28;20336;-67
2023/02/09 03:40:09;;;;;;;;;;;;;;;-1.60;83.64;101549.63;5022742;28;19929;-68
2023/02/09 03:42:34;;;;;;;;;;;;;;;-1.61;83.29;101548.75;5003240;28;20464;-67
2023/02/09 03:45:00;;;;;;;;;;;;;;;-1.71;83.43;101535.41;5012086;28;19936;-67
2023/02/09 03:47:26;;;;;;;;;;;;;;;-1.60;83.34;101546.94;5016479;28;19949;-67
2023/02/09 03:49:51;;;;;;;;;;;;;;;-1.60;83.32;101547.75;5027815;28;19975;-67
2023/02/09 03:52:17;;;;;;;;;;;;;;;-1.58;83.50;101547.63;5025789;28;20393;-67
2023/02/09 03:54:44;;;;;;;;;;;;;;;-1.59;83.31;101538.72;5014601;28;20011;-67
2023/02/09 03:57:10;;;;;;;;;;;;;;;-1.59;83.54;101541.41;5013705;28;19929;-67
2023/02/09 03:59:36;;;;;;;;;;;;;;;-1.60;83.47;101534.34;5006069;28;19976;-67
2023/02/09 04:02:03;;;;;;;;;;;;;;;-1.60;83.61;101538.88;5011339;28;19935;-67
2023/02/09 04:04:29;;;;;;;;;;;;;;;-1.62;83.82;101535.50;5012205;28;20028;-67
2023/02/09 04:06:56;;;;;;;;;;;;;;;-1.60;83.82;101542.41;5004913;28;19975;-67
2023/02/09 04:09:21;;;;;;;;;;;;;;;-1.58;83.65;101543.09;5016984;28;19936;-67
2023/02/09 04:11:49;;;;;;;;;;;;;;;-1.55;83.65;101546.47;5016723;28;19929;-67
2023/02/09 04:14:14;;;;;;;;;;;;;;;-1.54;83.72;101545.50;5018690;28;19929;-67
2023/02/09 04:16:40;;;;;;;;;;;;;;;-1.54;83.59;101540.13;5020344;28;19935;-66
2023/02/09 04:19:08;;;;;;;;;;;;;;;-1.55;83.56;101541.13;5014176;28;19929;-67
2023/02/09 04:21:34;;;;;;;;;;;;;;;-1.55;83.85;101535.75;5018368;28;19937;-67
2023/02/09 04:23:59;;;;;;;;;;;;;;;-1.57;83.76;101531.34;5009984;28;19933;-66
2023/02/09 04:26:25;;;;;;;;;;;;;;;-1.51;83.76;101547.84;4998259;28;19930;-66
2023/02/09 04:28:53;;;;;;;;;;;;;;;-1.49;83.92;101538.63;5014163;28;19930;-66
2023/02/09 04:31:18;;;;;;;;;;;;;;;-1.45;83.78;101534.69;5007717;28;20298;-67
2023/02/09 04:33:44;;;;;;;;;;;;;;;-1.39;83.57;101529.69;5014362;28;19994;-67
2023/02/09 04:36:10;;;;;;;;;;;;;;;-1.34;83.49;101522.00;5018972;28;20435;-67
2023/02/09 04:38:36;;;;;;;;;;;;;;;-1.36;83.29;101522.19;4999930;28;19931;-67
2023/02/09 04:41:02;;;;;;;;;;;;;;;-1.43;83.14;101527.31;5013848;28;19933;-67
2023/02/09 04:43:28;;;;;;;;;;;;;;;-1.43;83.29;101532.69;5007462;28;20166;-67
2023/02/09 04:45:55;;;;;;;;;;;;;;;-1.35;83.36;101528.38;5011478;28;19956;-68
2023/02/09 04:48:22;;;;;;;;;;;;;;;-1.32;82.89;101526.22;5012334;28;19990;-67
2023/02/09 04:50:48;;;;;;;;;;;;;;;-1.37;82.69;101533.06;5001148;28;20138;-67
2023/02/09 04:53:14;;;;;;;;;;;;;;;-1.40;82.83;101530.69;4652886;28;10000072;-67
2023/02/09 04:55:41;;;;;;;;;;;;;;;-1.40;82.93;101531.53;5018873;28;19935;-67
2023/02/09 05:00:54;;;;;;;;;;;;;;;-1.38;82.97;101524.19;5032470;28;20400;-67
2023/02/09 05:03:21;;;;;;;;;;;;;;;-1.41;82.87;101519.09;5009967;28;19929;-67
2023/02/09 05:05:47;;;;;;;;;;;;;;;-1.41;83.18;101535.19;5016044;28;19932;-66
2023/02/09 05:08:12;;;;;;;;;;;;;;;-1.43;82.86;101539.88;5003939;28;20220;-67
2023/02/09 05:10:38;;;;;;;;;;;;;;;-1.51;83.19;101529.91;4997520;28;19976;-67
2023/02/09 05:13:04;;;;;;;;;;;;;;;-1.59;83.32;101527.97;5012526;28;19956;-66
2023/02/09 05:15:30;;;;;;;;;;;;;;;-1.65;83.55;101520.56;5013414;28;20400;-66
2023/02/09 05:17:55;;;;;;;;;;;;;;;-1.65;83.90;101525.06;5017309;28;20404;-66
2023/02/09 05:20:23;;;;;;;;;;;;;;;-1.66;83.89;101526.91;5007469;28;20036;-66
2023/02/09 05:22:48;;;;;;;;;;;;;;;-1.62;84.02;101530.16;4996667;28;20023;-66
2023/02/09 05:25:14;;;;;;;;;;;;;;;-1.55;83.79;101523.16;5013963;28;20024;-66
2023/02/09 05:27:40;;;;;;;;;;;;;;;-1.47;83.65;101528.63;5014214;28;19944;-66
2023/02/09 05:30:06;;;;;;;;;;;;;;;-1.49;83.22;101521.72;5005747;28;19929;-66
2023/02/09 05:32:32;;;;;;;;;;;;;;;-1.55;83.29;101528.53;5008596;28;19934;-67
2023/02/09 05:34:58;;;;;;;;;;;;;;;-1.54;83.25;101529.38;5003348;28;20036;-66
2023/02/09 05:37:25;;;;;;;;;;;;;;;-1.50;83.36;101533.44;5002292;28;19934;-66
2023/02/09 05:39:51;;;;;;;;;;;;;;;-1.50;82.96;101525.41;5006494;28;19994;-66
2023/02/09 05:42:17;;;;;;;;;;;;;;;-1.48;83.08;101518.88;5009271;28;20036;-66
2023/02/09 05:44:43;;;;;;;;;;;;;;;-1.47;82.94;101520.56;5008506;28;20032;-66
2023/02/09 05:47:09;;;;;;;;;;;;;;;-1.43;82.27;101523.78;5008428;28;19929;-66
2023/02/09 05:49:35;;;;;;;;;;;;;;;-1.49;82.46;101530.59;5013688;28;19936;-67
2023/02/09 05:52:00;;;;;;;;;;;;;;;-1.57;82.22;101527.84;5014787;28;20450;-66
2023/02/09 05:54:28;;;;;;;;;;;;;;;-1.60;82.55;101537.03;5018395;28;19929;-66
2023/02/09 05:56:53;;;;;;;;;;;;;;;-1.61;82.46;101535.34;4988050;28;19933;-66
2023/02/09 05:59:19;;;;;;;;;;;;;;;-1.63;82.48;101531.16;5014232;28;19929;-66
2023/02/09 06:01:45;;;;;;;;;;;;;;;-1.63;82.65;101529.28;5007591;28;19929;-66
2023/02/09 06:04:11;;;;;;;;;;;;;;;-1.69;82.53;101529.91;5013094;28;20575;-66
2023/02/09 06:06:36;;;;;;;;;;;;;;;-1.66;82.75;101521.56;5017691;28;19936;-66
2023/02/09 06:09:03;;;;;;;;;;;;;;;-1.59;82.50;101519.94;5022154;28;21206;-66
2023/02/09 06:11:30;;;;;;;;;;;;;;;-1.65;82.45;101517.88;5017244;28;20027;-66
2023/02/09 06:13:56;;;;;;;;;;;;;;;-1.65;82.55;101527.75;5021142;28;19929;-66
2023/02/09 06:16:22;;;;;;;;;;;;;;;-1.57;82.48;101533.22;5013701;28;19975;-66
2023/02/09 06:18:48;;;;;;;;;;;;;;;-1.52;82.23;101538.13;5027238;28;20047;-66
2023/02/09 06:21:14;;;;;;;;;;;;;;;-1.57;82.39;101514.44;5032247;28;19929;-66
2023/02/09 06:23:39;;;;;;;;;;;;;;;-1.60;82.41;101520.94;5024712;28;19929;-66
2023/02/09 06:26:05;;;;;;;;;;;;;;;-1.59;82.33;101511.06;5026432;28;19929;-66
2023/02/09 06:28:33;;;;;;;;;;;;;;;-1.66;82.43;101513.50;5027318;28;19929;-67
2023/02/09 06:30:58;;;;;;;;;;;;;;;-1.58;82.59;101518.09;5029368;28;19929;-67
2023/02/09 06:33:24;;;;;;;;;;;;;;;-1.56;82.54;101516.13;5026878;28;20403;-67
2023/02/09 06:35:50;;;;;;;;;;;;;;;-1.61;82.40;101502.31;5032898;28;19929;-67
2023/02/09 06:38:15;;;;;;;;;;;;;;;-1.61;82.44;101508.50;5027146;28;19929;-67
2023/02/09 06:40:41;;;;;;;;;;;;;;;-1.58;82.67;101508.19;5032150;28;19936;-67
2023/02/09 06:43:07;;;;;;;;;;;;;;;-1.64;82.82;101514.19;5025675;28;19948;-68
2023/02/09 06:45:36;;;;;;;;;;;;;;;-1.63;82.89;101512.38;5015199;28;19933;-67
2023/02/09 06:48:03;;;;;;;;;;;;;;;-1.64;82.82;101513.34;5016548;28;20024;-66
2023/02/09 06:50:29;;;;;;;;;;;;;;;-1.68;82.97;101506.59;4980779;28;19936;-66
2023/02/09 06:52:56;;;;;;;;;;;;;;;-1.69;83.08;101503.09;5004665;28;19936;-67
2023/02/09 06:55:21;;;;;;;;;;;;;;;-1.74;83.18;101505.34;5013398;28;19976;-66
2023/02/09 06:57:47;;;;;;;;;;;;;;;-1.74;83.30;101502.69;5016913;28;19976;-66
2023/02/09 07:00:14;;;;;;;;;;;;;;;-1.68;83.31;101510.13;5018919;28;19929;-66
2023/02/09 07:02:41;;;;;;;;;;;;;;;-1.69;83.04;101513.81;5018284;28;19929;-66
2023/02/09 07:05:07;;;;;;;;;;;;;;;-1.66;83.22;101508.13;5011079;28;19929;-67
2023/02/09 07:07:33;;;;;;;;;;;;;;;-1.59;82.72;101513.75;5022163;28;19933;-66
2023/02/09 07:09:59;;;;;;;;;;;;;;;-1.56;82.64;101510.75;5013799;28;20137;-66
2023/02/09 07:12:24;;;;;;;;;;;;;;;-1.53;82.29;101514.97;5018259;28;19968;-66
2023/02/09 07:14:50;;;;;;;;;;;;;;;-1.51;82.04;101511.13;5013560;28;20396;-66
2023/02/09 07:17:16;;;;;;;;;;;;;;;-1.48;81.97;101510.84;5015772;28;19956;-66
2023/02/09 07:19:43;;;;;;;;;;;;;;;-1.47;81.79;101519.72;5013578;28;19936;-67
2023/02/09 07:22:09;;;;;;;;;;;;;;;-1.39;81.42;101511.75;5013348;28;19929;-67
2023/02/09 07:24:35;;;;;;;;;;;;;;;-1.34;81.14;101517.50;5008336;28;19930;-68
2023/02/09 07:27:02;;;;;;;;;;;;;;;-1.30;81.10;101521.56;5014567;28;20420;-67
2023/02/09 07:29:31;;;;;;;;;;;;;;;-1.26;80.73;101513.19;5015133;28;19983;-67
2023/02/09 07:31:57;;;;;;;;;;;;;;;-1.36;80.63;101511.44;5020486;28;20023;-67
2023/02/09 07:34:23;;;;;;;;;;;;;;;-1.27;80.72;101517.72;5011307;28;20032;-67
2023/02/09 07:36:50;;;;;;;;;;;;;;;-1.24;80.82;101528.16;5016116;28;19967;-67
2023/02/09 07:39:16;;;;;;;;;;;;;;;-1.17;80.80;101525.69;5016271;28;20435;-68
2023/02/09 07:41:41;;;;;;;;;;;;;;;-1.13;80.83;101520.88;5019612;28;19929;-67
2023/02/09 07:44:08;;;;;;;;;;;;;;;-1.15;80.42;101515.63;5008975;28;19929;-68
2023/02/09 07:46:34;;;;;;;;;;;;;;;-1.06;80.83;101511.19;5014349;28;19933;-67
2023/02/09 07:48:59;;;;;;;;;;;;;;;-1.04;80.45;101507.34;5023097;28;19976;-67
2023/02/09 07:51:27;;;;;;;;;;;;;;;-1.02;80.28;101513.41;5026714;28;19983;-67
2023/02/09 07:53:55;;;;;;;;;;;;;;;-0.94;80.39;101509.94;5010387;28;20388;-68
2023/02/09 07:56:21;;;;;;;;;;;;;;;-0.88;80.09;101513.84;5038057;28;19956;-67
2023/02/09 07:58:47;;;;;;;;;;;;;;;-0.87;79.94;101513.66;5007394;28;19951;-67
2023/02/09 08:01:13;;;;;;;;;;;;;;;-0.85;79.82;101516.19;5026981;28;19988;-67
2023/02/09 08:03:40;;;;;;;;;;;;;;;-0.68;79.54;101514.47;5014817;28;19933;-67
2023/02/09 08:06:09;;;;;;;;;;;;;;;-0.60;78.94;101503.78;5013611;28;19929;-67
2023/02/09 08:08:35;;;;;;;;;;;;;;;-0.55;78.77;101516.72;5015003;28;19979;-66
2023/02/09 08:11:04;;;;;;;;;;;;;;;-0.49;78.44;101509.88;5013725;28;19968;-66
2023/02/09 08:13:32;;;;;;;;;;;;;;;-0.57;78.04;101508.81;5017230;28;19935;-66
2023/02/09 08:16:01;;;;;;;;;;;;;;;-0.56;78.35;101515.06;5018212;28;19933;-66
2023/02/09 08:18:28;;;;;;;;;;;;;;;-0.58;77.94;101509.00;5018644;28;19937;-66
2023/02/09 08:20:54;;;;;;;;;;;;;;;-0.49;77.80;101510.72;5013878;28;20272;-66
2023/02/09 08:23:22;;;;;;;;;;;;;;;-0.38;77.57;101498.00;5015691;28;19937;-66
2023/02/09 08:25:50;;;;;;;;;;;;;;;-0.30;76.74;101500.75;5017446;28;19936;-66
2023/02/09 08:28:18;;;;;;;;;;;;;;;-0.22;76.81;101510.69;5014871;28;19937;-66
2023/02/09 08:30:44;;;;;;;;;;;;;;;-0.14;76.43;101502.66;5017955;28;19979;-67
2023/02/09 08:33:09;;;;;;;;;;;;;;;-0.10;76.29;101512.06;5002195;28;20261;-66
2023/02/09 08:35:35;;;;;;;;;;;;;;;-0.11;76.11;101507.69;5015262;28;19933;-67
2023/02/09 08:38:01;;;;;;;;;;;;;;;-0.07;76.12;101514.47;5013274;28;19936;-66
2023/02/09 08:40:27;;;;;;;;;;;;;;;-0.08;75.88;101517.28;5016347;28;20353;-67
2023/02/09 08:42:53;;;;;;;;;;;;;;;-0.07;75.64;101516.28;5016197;28;19955;-67
2023/02/09 08:45:20;;;;;;;;;;;;;;;-0.09;75.92;101505.69;5013631;28;19929;-67
2023/02/09 08:47:46;;;;;;;;;;;;;;;-0.10;75.37;101505.88;5016744;28;20290;-67
2023/02/09 08:50:12;;;;;;;;;;;;;;;-0.10;75.46;101506.69;5004242;28;19940;-67
2023/02/09 08:52:37;;;;;;;;;;;;;;;-0.10;75.24;101504.00;5005014;28;20044;-68
2023/02/09 08:55:03;;;;;;;;;;;;;;;-0.10;75.17;101503.19;5011176;28;19929;-67
2023/02/09 08:57:29;;;;;;;;;;;;;;;0.08;74.90;101509.28;5013099;28;19936;-66
2023/02/09 08:59:55;;;;;;;;;;;;;;;0.12;74.33;101499.88;5012099;28;19960;-67
2023/02/09 09:02:22;;;;;;;;;;;;;;;0.09;74.20;101499.38;5020120;28;20075;-66
2023/02/09 09:04:48;;;;;;;;;;;;;;;0.09;74.46;101496.69;5010041;28;19979;-67
2023/02/09 09:07:14;;;;;;;;;;;;;;;0.19;74.25;101492.00;5013342;28;19937;-66
2023/02/09 09:09:39;;;;;;;;;;;;;;;0.30;73.85;101496.22;5013792;28;19949;-67
2023/02/09 09:12:05;;;;;;;;;;;;;;;0.27;73.55;101496.53;5027785;28;19995;-67
2023/02/09 09:14:31;;;;;;;;;;;;;;;0.14;73.69;101489.78;5015769;28;19929;-67
2023/02/09 09:16:57;;;;;;;;;;;;;;;0.07;73.65;101496.84;5017855;28;19929;-66
2023/02/09 09:19:24;;;;;;;;;;;;;;;0.03;73.52;101498.19;5014766;28;19976;-67
2023/02/09 09:21:50;;;;;;;;;;;;;;;-0.04;73.68;101489.91;5016825;28;19929;-67
2023/02/09 09:24:16;;;;;;;;;;;;;;;-0.07;73.87;101501.00;5013898;28;19933;-67
2023/02/09 09:26:42;;;;;;;;;;;;;;;-0.05;74.11;101493.63;5016216;28;19969;-67
2023/02/09 09:29:08;;;;;;;;;;;;;;;0.05;73.83;101495.31;5040380;28;19929;-68
2023/02/09 09:31:35;;;;;;;;;;;;;;;-0.01;73.79;101491.41;5014168;28;19964;-67
2023/02/09 09:34:01;;;;;;;;;;;;;;;0.02;73.89;101496.50;5018988;28;19929;-68
2023/02/09 09:36:28;;;;;;;;;;;;;;;0.09;74.19;101494.81;5019856;28;20043;-67
2023/02/09 09:38:54;;;;;;;;;;;;;;;0.10;74.13;101493.00;5026833;28;19979;-68
2023/02/09 09:41:23;;;;;;;;;;;;;;;0.10;74.14;101490.31;5030755;28;20339;-67
2023/02/09 09:43:49;;;;;;;;;;;;;;;0.12;74.06;101489.09;5024676;28;19941;-68
2023/02/09 09:46:16;;;;;;;;;;;;;;;0.09;74.13;101484.06;5013026;28;20729;-67
2023/02/09 09:48:44;;;;;;;;;;;;;;;0.05;74.02;101476.47;5019265;28;19991;-68
2023/02/09 09:51:11;;;;;;;;;;;;;;;-0.03;74.13;101478.16;5014909;28;19933;-67
2023/02/09 09:53:39;;;;;;;;;;;;;;;-0.08;74.28;101469.75;5020579;28;20392;-67
2023/02/09 09:56:06;;;;;;;;;;;;;;;-0.01;74.20;101484.22;5015699;28;19936;-68
2023/02/09 09:58:33;;;;;;;;;;;;;;;-0.07;73.89;101476.81;5018477;28;20023;-67
2023/02/09 10:00:58;;;;;;;;;;;;;;;-0.08;74.37;101476.97;5012177;28;20418;-67
2023/02/09 10:03:24;;;;;;;;;;;;;;;-0.07;74.39;101466.06;5013856;28;19969;-68
2023/02/09 10:05:52;;;;;;;;;;;;;;;-0.07;74.38;101471.44;5018003;28;19969;-68
2023/02/09 10:08:20;;;;;;;;;;;;;;;-0.12;74.29;101464.84;5016632;28;19936;-68
2023/02/09 10:10:50;;;;;;;;;;;;;;;-0.03;74.21;101471.91;5013642;28;20307;-68
2023/02/09 10:13:19;;;;;;;;;;;;;;;-0.06;74.19;101462.34;5020657;28;19936;-67
2023/02/09 10:15:46;;;;;;;;;;;;;;;-0.05;74.18;101455.97;5015779;28;19933;-68
2023/02/09 10:18:12;;;;;;;;;;;;;;;0.06;73.97;101459.34;5006319;28;19984;-67
2023/02/09 10:20:40;;;;;;;;;;;;;;;0.14;73.81;101456.69;5017694;28;20490;-68
2023/02/09 10:23:12;;;;;;;;;;;;;;;0.05;73.37;101457.66;5019045;28;19929;-68
2023/02/09 10:25:47;;;;;;;;;;;;;;;-0.07;73.60;101449.06;5019699;28;20396;-67
2023/02/09 10:28:19;;;;;;;;;;;;;;;-0.12;73.50;101449.53;5037083;28;20315;-67
2023/02/09 10:30:45;;;;;;;;;;;;;;;-0.13;74.00;101453.25;5028759;28;19952;-67
2023/02/09 10:33:13;;;;;;;;;;;;;;;-0.08;74.05;101453.59;5029379;28;19975;-67
2023/02/09 10:35:42;;;;;;;;;;;;;;;-0.07;73.93;101449.06;5020223;28;19929;-67
2023/02/09 10:38:14;;;;;;;;;;;;;;;-0.05;73.67;101450.59;5010715;28;19929;-67
2023/02/09 10:40:40;;;;;;;;;;;;;;;0.05;73.65;101452.28;5007185;28;19948;-68
2023/02/09 10:43:15;;;;;;;;;;;;;;;0.05;73.69;101442.38;5010433;28;19930;-67
2023/02/09 10:45:43;;;;;;;;;;;;;;;0.04;73.49;101438.00;5021219;28;20308;-67
2023/02/09 10:48:15;;;;;;;;;;;;;;;0.03;73.46;101440.84;5018554;28;19929;-67
2023/02/09 10:50:47;;;;;;;;;;;;;;;-0.02;73.63;101444.88;5016638;28;20388;-67
2023/02/09 10:53:17;;;;;;;;;;;;;;;-0.05;73.73;101430.91;5024607;28;19959;-66
2023/02/09 10:55:43;;;;;;;;;;;;;;;-0.08;73.74;101425.84;5013262;28;19933;-67
2023/02/09 10:58:20;;;;;;;;;;;;;;;-0.06;74.08;101426.53;5018530;28;19983;-67
2023/02/09 11:00:52;;;;;;;;;;;;;;;-0.02;74.15;101425.19;5020734;28;19951;-66
2023/02/09 11:03:20;;;;;;;;;;;;;;;-0.01;74.09;101426.88;5016519;28;19956;-66
2023/02/09 11:05:59;;;;;;;;;;;;;;;-0.03;73.83;101418.97;5023854;28;19929;-66
2023/02/09 11:08:33;;;;;;;;;;;;;;;0.02;73.73;101417.63;5016944;28;19929;-66
2023/02/09 11:11:01;;;;;;;;;;;;;;;0.12;73.58;101419.16;5018437;28;19960;-66
2023/02/09 11:13:27;;;;;;;;;;;;;;;0.14;73.37;101427.91;5033673;28;20024;-67
2023/02/09 11:16:05;;;;;;;;;;;;;;;0.09;73.11;101427.56;5000985;28;20031;-67
2023/02/09 11:18:32;;;;;;;;;;;;;;;0.03;73.37;101425.56;5019809;28;19929;-67
2023/02/09 11:21:02;;;;;;;;;;;;;;;0.02;73.46;101415.81;5027184;28;19929;-66
2023/02/09 11:23:35;;;;;;;;;;;;;;;-0.01;73.25;101416.09;5026609;28;19929;-67
2023/02/09 11:26:06;;;;;;;;;;;;;;;-0.05;73.07;101412.94;5015673;28;20301;-67
2023/02/09 11:28:37;;;;;;;;;;;;;;;-0.02;73.21;101417.13;5021720;28;19995;-66
2023/02/09 11:31:18;;;;;;;;;;;;;;;0.00;73.10;101415.13;5015044;28;19976;-68
2023/02/09 11:33:51;;;;;;;;;;;;;;;-0.02;73.20;101407.22;5016575;28;19976;-67
2023/02/09 11:36:26;;;;;;;;;;;;;;;-0.05;73.05;101407.56;5016173;28;19983;-66
2023/02/09 11:38:53;;;;;;;;;;;;;;;-0.11;72.84;101413.56;5017463;28;19929;-66
2023/02/09 11:44:15;;;;;;;;;;;;;;;-0.03;73.02;101405.53;5018774;28;20396;-66
2023/02/09 11:46:42;;;;;;;;;;;;;;;0.03;72.79;101403.19;5019230;28;19998;-67
2023/02/09 11:49:16;;;;;;;;;;;;;;;0.03;72.25;101404.03;5015546;28;19930;-67
2023/02/09 11:51:44;;;;;;;;;;;;;;;0.01;72.67;101408.75;5015814;28;19929;-67
2023/02/09 11:54:13;;;;;;;;;;;;;;;-0.02;72.63;101411.75;5018362;28;19975;-67
2023/02/09 11:56:41;;;;;;;;;;;;;;;0.01;72.65;101405.19;5020660;28;20301;-67
2023/02/09 11:59:09;;;;;;;;;;;;;;;0.02;72.52;101409.56;5004656;28;19929;-68
2023/02/09 12:01:38;;;;;;;;;;;;;;;0.04;72.37;101403.03;5004006;28;19929;-68
2023/02/09 12:04:09;;;;;;;;;;;;;;;0.05;72.60;101402.03;5010300;28;19934;-67
2023/02/09 12:06:38;;;;;;;;;;;;;;;0.10;72.33;101410.41;5015355;28;19936;-67
2023/02/09 12:09:19;;;;;;;;;;;;;;;0.12;71.88;101399.50;5021268;28;19937;-68
2023/02/09 12:11:50;;;;;;;;;;;;;;;0.06;72.17;101401.00;5014269;28;19933;-68
2023/02/09 12:14:22;;;;;;;;;;;;;;;0.02;72.25;101399.66;5015486;28;19928;-68
2023/02/09 12:16:52;;;;;;;;;;;;;;;0.04;72.28;101394.09;5018560;28;19956;-67
2023/02/09 12:19:22;;;;;;;;;;;;;;;0.09;72.37;101394.47;5020169;28;19929;-66
2023/02/09 12:21:50;;;;;;;;;;;;;;;0.05;72.16;101391.25;5014132;28;19934;-66
2023/02/09 12:24:30;;;;;;;;;;;;;;;0.10;72.15;101401.53;5016294;28;19929;-67
2023/02/09 12:26:56;;;;;;;;;;;;;;;-0.02;71.94;101396.47;5015447;28;19964;-66
2023/02/09 12:29:25;;;;;;;;;;;;;;;-0.02;72.12;101399.16;5021276;28;19975;-67
2023/02/09 12:32:09;;;;;;;;;;;;;;;0.07;71.86;101397.31;5015897;28;19929;-67
2023/02/09 12:34:39;;;;;;;;;;;;;;;0.07;71.20;101402.69;5021896;28;20078;-66
2023/02/09 12:37:23;;;;;;;;;;;;;;;0.07;70.90;101397.31;5017262;28;20010;-66
2023/02/09 12:40:17;;;;;;;;;;;;;;;0.03;69.48;101404.03;5034871;28;19933;-66
2023/02/09 12:42:45;;;;;;;;;;;;;;;-0.07;68.09;101397.97;5013661;28;19952;-66
2023/02/09 12:45:29;;;;;;;;;;;;;;;-0.17;68.59;101398.09;5007473;28;19987;-66
2023/02/09 12:47:56;;;;;;;;;;;;;;;-0.19;67.76;101390.19;5021167;28;19933;-67
2023/02/09 12:50:26;;;;;;;;;;;;;;;-0.22;67.70;101387.84;5013554;28;19983;-67